Terminal Aerodrome Forecast
Issued by NWS Green Bay, WI

Home | Current Version | Previous Version | Graphics & Text | Print | Product List | Glossary Off
Versions: 1 2 3 4 5 6 7 8 9 10 11 12 13 14 15 16 17 18 19 20 21 22 23 24 25 26 27 28 29 30 31 32 33 34 35 36 37 38 39 40 41 42 43 44 45 46 47 48 49 50

000
FTUS43 KGRB 250500
TAFGRB
TAF
KGRB 250520Z 2506/2606 29008KT P6SM SCT028 OVC035
      TEMPO 2507/2511 SCT035
     FM251300 24008KT P6SM OVC025
     FM252100 19006KT P6SM SCT030 BKN100
     FM260200 20003KT 6SM BR SCT100 BKN250=

USA.gov is the U.S. government's official web portal to all federal, state and local government web resources and services.